Time;durP1;ratioP1;P1;durP2;ratioP2;P2;SDS_P1;SDS_P2;PMS_P1;PMS_P2;Temp;Humidity;BMP_temperature;BMP_pressure;BME280_temperature;BME280_humidity;BME280_pressure;Samples;Min_cycle;Max_cycle;Signal;HPM_P1;HPM_P2
2022/11/10 00:01:52;;;;;;;;;;;;;;;20.62;50.10;101388.94;5114100;28;19985;-35
2022/11/10 00:04:17;;;;;;;;;;;;;;;20.62;50.20;101388.94;5113121;28;19931;-35
2022/11/10 00:06:45;;;;;;;;;;;;;;;20.63;50.17;101398.09;5092751;28;19927;-35
2022/11/10 00:09:10;;;;;;;;;;;;;;;20.63;50.23;101409.16;5121864;28;20014;-36
2022/11/10 00:11:36;;;;;;;;;;;;;;;20.63;50.19;101409.97;5112867;28;20287;-36
2022/11/10 00:17:18;;;;;;;;;;;;;;;20.62;50.27;101400.03;5096344;28;20038;-35
2022/11/10 00:19:33;;;;;;;;;;;;;;;20.62;50.10;101404.72;5100357;28;19981;-35
2022/11/10 00:21:59;;;;;;;;;;;;;;;20.62;50.27;101401.97;5095269;28;20013;-35
2022/11/10 00:24:25;;;;;;;;;;;;;;;20.62;50.33;101400.03;5110631;28;20042;-35
2022/11/10 00:26:50;;;;;;;;;;;;;;;20.62;50.28;101399.19;5115702;28;20265;-36
2022/11/10 00:29:16;;;;;;;;;;;;;;;20.61;50.15;101408.63;5114556;28;19923;-35
2022/11/10 00:31:41;;;;;;;;;;;;;;;20.61;50.11;101409.44;5114653;28;19924;-35
2022/11/10 00:34:09;;;;;;;;;;;;;;;20.61;50.24;101405.84;5114931;28;19924;-35
2022/11/10 00:36:35;;;;;;;;;;;;;;;20.61;50.10;101414.97;5115175;28;20385;-35
2022/11/10 00:39:00;;;;;;;;;;;;;;;20.61;50.13;101417.75;5113911;28;20383;-35
2022/11/10 00:41:26;;;;;;;;;;;;;;;20.61;50.09;101428.81;5116905;28;19946;-35
2022/11/10 00:43:51;;;;;;;;;;;;;;;20.61;50.18;101433.53;5114227;28;19924;-37
2022/11/10 00:46:17;;;;;;;;;;;;;;;20.61;50.25;101428.81;5109640;28;19930;-39
2022/11/10 00:48:42;;;;;;;;;;;;;;;20.61;50.16;101428.00;5113439;28;20147;-35
2022/11/10 00:51:09;;;;;;;;;;;;;;;20.61;50.07;101433.53;5115259;28;19931;-35
2022/11/10 00:53:35;;;;;;;;;;;;;;;20.61;50.12;101434.34;5114621;28;20026;-36
2022/11/10 00:56:00;;;;;;;;;;;;;;;20.61;50.21;101436.28;5113480;28;20303;-35
2022/11/10 00:58:26;;;;;;;;;;;;;;;20.60;50.17;101438.22;5117663;28;21137;-35
2022/11/10 01:00:59;;;;;;;;;;;;;;;20.60;50.24;101438.22;5115519;28;20307;-35
2022/11/10 01:03:25;;;;;;;;;;;;;;;20.60;50.08;101435.47;5112995;28;20218;-35
2022/11/10 01:05:50;;;;;;;;;;;;;;;20.61;50.29;101430.75;5119774;28;19927;-35
2022/11/10 01:08:16;;;;;;;;;;;;;;;20.60;50.09;101437.41;5115378;28;19943;-35
2022/11/10 01:10:41;;;;;;;;;;;;;;;20.61;50.13;101436.28;5111842;28;20268;-35
2022/11/10 01:13:07;;;;;;;;;;;;;;;20.60;50.11;101441.00;5115988;28;19934;-35
2022/11/10 01:15:32;;;;;;;;;;;;;;;20.60;50.18;101442.94;5113880;28;19939;-35
2022/11/10 01:17:58;;;;;;;;;;;;;;;20.59;50.20;101439.31;5113229;28;19992;-35
2022/11/10 01:20:23;;;;;;;;;;;;;;;20.60;50.00;101449.31;5110564;28;19938;-35
2022/11/10 01:22:49;;;;;;;;;;;;;;;20.60;50.11;101443.75;5114493;28;19934;-35
2022/11/10 01:25:15;;;;;;;;;;;;;;;20.60;50.07;101457.59;5116905;28;19924;-36
2022/11/10 01:27:40;;;;;;;;;;;;;;;20.60;50.29;101465.06;5113493;28;19931;-35
2022/11/10 01:30:06;;;;;;;;;;;;;;;20.60;50.13;101470.63;5115603;28;19930;-35
2022/11/10 01:32:31;;;;;;;;;;;;;;;20.60;50.24;101465.91;5116246;28;19931;-35
2022/11/10 01:34:57;;;;;;;;;;;;;;;20.59;50.16;101461.44;5114534;28;19929;-36
2022/11/10 01:37:23;;;;;;;;;;;;;;;20.60;50.08;101470.63;5117679;28;19931;-35
2022/11/10 01:39:48;;;;;;;;;;;;;;;20.60;50.24;101470.63;5115033;28;19942;-35
2022/11/10 01:42:14;;;;;;;;;;;;;;;20.60;50.20;101470.63;5116363;28;19928;-35
2022/11/10 01:44:39;;;;;;;;;;;;;;;20.60;50.24;101470.63;5117090;28;19931;-35
2022/11/10 01:47:05;;;;;;;;;;;;;;;20.59;50.15;101480.00;5113188;28;19985;-35
2022/11/10 01:49:32;;;;;;;;;;;;;;;20.59;50.08;101482.75;5114520;28;20155;-35
2022/11/10 01:52:03;;;;;;;;;;;;;;;20.59;49.98;101485.53;5113134;28;19931;-35
2022/11/10 01:54:31;;;;;;;;;;;;;;;20.59;50.13;101482.75;5095811;28;19971;-35
2022/11/10 01:56:58;;;;;;;;;;;;;;;20.58;50.10;101486.66;5094726;28;20031;-35
2022/11/10 01:59:24;;;;;;;;;;;;;;;20.59;50.23;101499.38;5092718;28;21111;-35
2022/11/10 02:01:50;;;;;;;;;;;;;;;20.58;50.04;101501.31;5111070;28;19978;-35
2022/11/10 02:04:16;;;;;;;;;;;;;;;20.59;50.20;101508.50;5109774;28;20311;-35
2022/11/10 02:06:42;;;;;;;;;;;;;;;20.59;50.31;101504.91;5090061;28;19932;-35
2022/11/10 02:09:08;;;;;;;;;;;;;;;20.59;50.04;101507.66;5093532;28;19943;-35
2022/11/10 02:11:34;;;;;;;;;;;;;;;20.58;50.05;101509.59;5113597;28;20325;-35
2022/11/10 02:13:59;;;;;;;;;;;;;;;20.59;50.19;101502.13;5113100;28;19928;-35
2022/11/10 02:16:25;;;;;;;;;;;;;;;20.58;50.15;101504.06;5111969;28;20303;-35
2022/11/10 02:18:50;;;;;;;;;;;;;;;20.59;50.15;101507.66;5121861;28;19928;-35
2022/11/10 02:21:16;;;;;;;;;;;;;;;20.59;50.20;101510.44;5110161;28;19924;-35
2022/11/10 02:23:43;;;;;;;;;;;;;;;20.58;50.10;101509.59;5096036;28;20324;-35
2022/11/10 02:26:09;;;;;;;;;;;;;;;20.58;50.05;101506.84;5110051;28;20560;-35
2022/11/10 02:28:35;;;;;;;;;;;;;;;20.58;50.06;101511.56;5112243;28;20422;-35
2022/11/10 02:31:00;;;;;;;;;;;;;;;20.58;50.23;101517.91;5113933;28;19928;-35
2022/11/10 02:33:26;;;;;;;;;;;;;;;20.58;50.20;101515.16;5111608;28;20379;-35
2022/11/10 02:35:51;;;;;;;;;;;;;;;20.58;50.06;101511.56;5113272;28;19934;-35
2022/11/10 02:38:17;;;;;;;;;;;;;;;20.58;50.04;101511.56;5115171;28;19969;-35
2022/11/10 02:40:42;;;;;;;;;;;;;;;20.57;50.07;101513.50;5125690;28;19923;-35
2022/11/10 02:43:10;;;;;;;;;;;;;;;20.58;50.20;101517.09;5115372;28;19924;-35
2022/11/10 02:45:40;;;;;;;;;;;;;;;20.57;50.00;101515.44;5113201;28;19931;-35
2022/11/10 02:48:07;;;;;;;;;;;;;;;20.58;50.03;101512.38;5115522;28;19971;-35
2022/11/10 02:50:33;;;;;;;;;;;;;;;20.58;50.04;101514.31;5095734;28;19967;-35
2022/11/10 02:52:58;;;;;;;;;;;;;;;20.58;49.96;101520.69;5115988;28;20398;-35
2022/11/10 02:55:24;;;;;;;;;;;;;;;20.57;50.05;101521.78;5115565;28;19932;-35
2022/11/10 02:57:49;;;;;;;;;;;;;;;20.57;50.07;101526.50;5121360;28;19928;-35
2022/11/10 03:00:15;;;;;;;;;;;;;;;20.56;50.04;101525.69;5115435;28;20391;-35
2022/11/10 03:02:40;;;;;;;;;;;;;;;20.57;50.09;101538.41;5119396;28;19924;-35
2022/11/10 03:05:06;;;;;;;;;;;;;;;20.57;49.98;101548.63;5111394;28;19935;-35
2022/11/10 03:07:32;;;;;;;;;;;;;;;20.57;49.99;101551.41;5115145;28;19923;-35
2022/11/10 03:09:57;;;;;;;;;;;;;;;20.56;50.08;101547.81;5121419;28;19924;-36
2022/11/10 03:12:23;;;;;;;;;;;;;;;20.56;50.07;101558.06;5118217;28;20287;-35
2022/11/10 03:14:48;;;;;;;;;;;;;;;20.57;50.11;101562.47;5113515;28;19924;-35
2022/11/10 03:17:14;;;;;;;;;;;;;;;20.58;50.01;101558.59;5114660;28;19923;-35
2022/11/10 03:19:39;;;;;;;;;;;;;;;20.56;50.10;101547.81;5115598;28;19968;-35
2022/11/10 03:22:05;;;;;;;;;;;;;;;20.57;50.02;101551.41;5113962;28;19943;-35
2022/11/10 03:24:30;;;;;;;;;;;;;;;20.56;49.98;101546.97;5115044;28;21001;-36
2022/11/10 03:26:56;;;;;;;;;;;;;;;20.56;50.06;101549.75;5113705;28;19946;-35
2022/11/10 03:29:22;;;;;;;;;;;;;;;20.56;50.19;101549.75;5113964;28;19928;-35
2022/11/10 03:31:47;;;;;;;;;;;;;;;20.56;50.07;101558.88;5114179;28;19954;-35
2022/11/10 03:34:13;;;;;;;;;;;;;;;20.56;49.95;101566.34;5116856;28;19931;-35
2022/11/10 03:36:38;;;;;;;;;;;;;;;20.54;50.03;101572.97;5114940;28;19984;-35
2022/11/10 03:39:04;;;;;;;;;;;;;;;20.56;50.21;101569.94;5118388;28;19923;-35
2022/11/10 03:41:30;;;;;;;;;;;;;;;20.57;50.16;101568.00;5121210;28;19967;-35
2022/11/10 03:43:55;;;;;;;;;;;;;;;20.56;49.99;101566.34;5119452;28;19946;-35
2022/11/10 03:46:21;;;;;;;;;;;;;;;20.55;50.05;101579.34;5112239;28;19930;-35
2022/11/10 03:48:46;;;;;;;;;;;;;;;20.56;50.21;101585.72;5118434;28;19928;-35
2022/11/10 03:51:18;;;;;;;;;;;;;;;20.56;50.05;101588.50;5112511;28;20379;-35
2022/11/10 03:53:44;;;;;;;;;;;;;;;20.56;50.25;101591.25;5113412;28;19924;-35
2022/11/10 03:56:09;;;;;;;;;;;;;;;20.55;50.19;101582.09;5112985;28;19932;-35
2022/11/10 03:58:35;;;;;;;;;;;;;;;20.54;50.12;101588.75;5113333;28;19979;-35
2022/11/10 04:01:01;;;;;;;;;;;;;;;20.54;49.95;101595.09;5115455;28;20423;-35
2022/11/10 04:03:26;;;;;;;;;;;;;;;20.54;50.14;101608.94;5120129;28;19929;-36
2022/11/10 04:09:08;;;;;;;;;;;;;;;20.54;50.07;101622.78;5099833;28;19928;-35
2022/11/10 04:16:54;;;;;;;;;;;;;;;20.54;50.08;101633.84;5098402;28;20023;-35
2022/11/10 04:19:19;;;;;;;;;;;;;;;20.55;50.21;101631.91;5117098;28;19930;-35
2022/11/10 04:21:45;;;;;;;;;;;;;;;20.54;50.01;101635.78;5113647;28;19936;-35
2022/11/10 04:24:10;;;;;;;;;;;;;;;20.54;49.97;101631.06;5114815;28;20359;-35
2022/11/10 04:26:37;;;;;;;;;;;;;;;20.54;50.09;101638.56;5113543;28;19958;-35
2022/11/10 04:29:04;;;;;;;;;;;;;;;20.54;50.01;101639.38;5114461;28;20352;-35
2022/11/10 04:31:30;;;;;;;;;;;;;;;20.54;49.98;101641.31;5093628;28;20039;-35
2022/11/10 04:33:56;;;;;;;;;;;;;;;20.54;50.13;101646.84;5114238;28;20389;-35
2022/11/10 04:36:22;;;;;;;;;;;;;;;20.53;50.14;101648.78;5097686;28;20006;-36
2022/11/10 04:38:48;;;;;;;;;;;;;;;20.53;50.11;101645.19;5116595;28;20070;-35
2022/11/10 04:41:14;;;;;;;;;;;;;;;20.54;50.12;101652.38;5122862;28;20268;-35
2022/11/10 04:43:39;;;;;;;;;;;;;;;20.54;50.06;101655.16;5094387;28;19930;-35
2022/11/10 04:46:05;;;;;;;;;;;;;;;20.55;49.91;101656.81;5095904;28;19975;-35
2022/11/10 04:48:31;;;;;;;;;;;;;;;20.54;50.18;101660.69;5113110;28;19928;-35
2022/11/10 04:50:57;;;;;;;;;;;;;;;20.54;50.09;101677.28;5096154;28;20333;-35
2022/11/10 04:53:24;;;;;;;;;;;;;;;20.54;50.05;101672.59;5097869;28;19924;-35
2022/11/10 04:55:50;;;;;;;;;;;;;;;20.53;50.02;101678.41;5112007;28;20042;-35
2022/11/10 04:58:15;;;;;;;;;;;;;;;20.54;50.10;101688.38;5112941;28;19930;-35
2022/11/10 05:00:41;;;;;;;;;;;;;;;20.54;50.16;101691.13;5110093;28;19930;-35
2022/11/10 05:03:07;;;;;;;;;;;;;;;20.53;49.73;101695.00;5111709;28;19985;-35
2022/11/10 05:05:33;;;;;;;;;;;;;;;20.53;49.98;101695.84;5110896;28;19955;-35
2022/11/10 05:07:58;;;;;;;;;;;;;;;20.53;50.00;101698.59;5117831;28;19954;-35
2022/11/10 05:10:24;;;;;;;;;;;;;;;20.53;50.13;101704.13;5123225;28;20106;-36
2022/11/10 05:12:53;;;;;;;;;;;;;;;20.53;50.15;101701.38;5093065;28;20403;-35
2022/11/10 05:15:19;;;;;;;;;;;;;;;20.53;50.09;101708.84;5094098;28;19967;-35
2022/11/10 05:17:48;;;;;;;;;;;;;;;20.54;50.07;101716.03;5116014;28;20169;-35
2022/11/10 05:20:15;;;;;;;;;;;;;;;20.54;50.08;101713.25;5118867;28;19970;-35
2022/11/10 05:22:42;;;;;;;;;;;;;;;20.53;50.06;101720.75;5113090;28;20326;-35
2022/11/10 05:25:14;;;;;;;;;;;;;;;20.54;49.98;101724.34;5099545;28;19958;-35
2022/11/10 05:27:39;;;;;;;;;;;;;;;20.54;50.08;101727.09;5118753;28;19931;-35
2022/11/10 05:30:05;;;;;;;;;;;;;;;20.52;50.11;101741.22;5115667;28;19949;-35
2022/11/10 05:32:31;;;;;;;;;;;;;;;20.53;49.99;101742.06;5108144;28;20360;-35
2022/11/10 05:34:56;;;;;;;;;;;;;;;20.53;50.08;101740.09;5112455;28;20257;-35
2022/11/10 05:37:22;;;;;;;;;;;;;;;20.52;50.11;101743.97;5109483;28;19935;-35
2022/11/10 05:39:47;;;;;;;;;;;;;;;20.53;50.05;101742.88;5116547;28;19934;-35
2022/11/10 05:42:13;;;;;;;;;;;;;;;20.53;50.15;101742.06;5117033;28;19997;-35
2022/11/10 05:44:38;;;;;;;;;;;;;;;20.52;50.17;101745.94;5117306;28;19934;-35
2022/11/10 05:47:04;;;;;;;;;;;;;;;20.52;50.10;101741.22;5109489;28;19946;-35
2022/11/10 05:49:29;;;;;;;;;;;;;;;20.52;50.00;101745.94;5116402;28;19935;-35
2022/11/10 05:51:55;;;;;;;;;;;;;;;20.52;50.14;101752.28;5111254;28;19980;-35
2022/11/10 05:54:20;;;;;;;;;;;;;;;20.53;49.96;101755.88;5110373;28;19927;-35
2022/11/10 05:56:46;;;;;;;;;;;;;;;20.52;50.01;101745.94;5110838;28;19957;-35
2022/11/10 05:59:12;;;;;;;;;;;;;;;20.52;50.13;101751.47;5116370;28;20367;-35
2022/11/10 06:01:37;;;;;;;;;;;;;;;20.52;49.98;101751.47;5113193;28;19924;-35
2022/11/10 06:04:03;;;;;;;;;;;;;;;20.52;50.10;101766.13;5113937;28;19931;-35
2022/11/10 06:06:28;;;;;;;;;;;;;;;20.51;50.20;101758.94;5115442;28;19946;-35
2022/11/10 06:08:55;;;;;;;;;;;;;;;20.52;50.01;101765.28;5110300;28;19932;-35
2022/11/10 06:11:20;;;;;;;;;;;;;;;20.52;50.11;101762.53;5110446;28;20371;-35
2022/11/10 06:13:46;;;;;;;;;;;;;;;20.46;50.41;101769.91;5116160;28;20387;-37
2022/11/10 06:16:11;;;;;;;;;;;;;;;20.53;50.24;101765.00;5119042;28;19928;-33
2022/11/10 06:18:37;;;;;;;;;;;;;;;20.56;51.27;101766.41;5114767;28;19931;-33
2022/11/10 06:21:03;;;;;;;;;;;;;;;20.61;51.27;101785.81;5120998;28;20321;-33
2022/11/10 06:23:29;;;;;;;;;;;;;;;20.61;51.22;101783.03;5114223;28;19942;-33
2022/11/10 06:25:54;;;;;;;;;;;;;;;20.60;51.47;101788.84;5113805;28;19967;-33
2022/11/10 06:28:20;;;;;;;;;;;;;;;20.60;51.45;101792.47;5113027;28;20186;-33
2022/11/10 06:30:45;;;;;;;;;;;;;;;20.60;51.47;101791.63;5115196;28;19927;-33
2022/11/10 06:33:11;;;;;;;;;;;;;;;20.59;51.19;101795.47;5112484;28;20291;-33
2022/11/10 06:35:36;;;;;;;;;;;;;;;20.60;51.29;101788.84;5112679;28;19970;-33
2022/11/10 06:38:03;;;;;;;;;;;;;;;20.59;51.24;101792.72;5112561;28;19932;-33
2022/11/10 06:40:29;;;;;;;;;;;;;;;20.59;51.15;101804.59;5114287;28;19923;-33
2022/11/10 06:42:54;;;;;;;;;;;;;;;20.60;51.15;101802.69;5113603;28;19931;-33
2022/11/10 06:45:20;;;;;;;;;;;;;;;20.60;51.32;101809.06;5091769;28;19995;-36
2022/11/10 06:47:46;;;;;;;;;;;;;;;20.61;51.04;101815.44;5105592;28;19935;-33
2022/11/10 06:50:12;;;;;;;;;;;;;;;20.61;51.03;101819.03;5110687;28;19932;-33
2022/11/10 06:52:37;;;;;;;;;;;;;;;20.61;50.46;101824.56;5104200;28;20292;-35
2022/11/10 06:55:03;;;;;;;;;;;;;;;20.64;50.66;101828.69;5110634;28;19924;-33
2022/11/10 06:57:28;;;;;;;;;;;;;;;20.60;50.38;101830.38;5104560;28;20439;-33
2022/11/10 06:59:54;;;;;;;;;;;;;;;20.65;50.57;101833.16;5101333;28;19939;-33
2022/11/10 07:02:20;;;;;;;;;;;;;;;20.66;50.54;101835.66;5099533;28;19955;-33
2022/11/10 07:04:45;;;;;;;;;;;;;;;20.65;50.77;101845.06;5090115;28;20008;-34
2022/11/10 07:07:11;;;;;;;;;;;;;;;20.66;50.64;101856.97;5095477;28;19939;-33
2022/11/10 07:09:37;;;;;;;;;;;;;;;20.65;50.71;101861.66;5100277;28;20307;-33
2022/11/10 07:12:03;;;;;;;;;;;;;;;20.66;50.72;101866.09;5082583;28;20383;-33
2022/11/10 07:14:28;;;;;;;;;;;;;;;20.66;50.50;101870.81;5103552;28;19938;-33
2022/11/10 07:16:54;;;;;;;;;;;;;;;20.65;50.41;101878.28;5106521;28;20263;-36
2022/11/10 07:19:19;;;;;;;;;;;;;;;20.66;50.26;101876.34;5096330;28;19923;-33
2022/11/10 07:21:45;;;;;;;;;;;;;;;20.67;50.54;101887.13;5110937;28;19931;-33
2022/11/10 07:24:10;;;;;;;;;;;;;;;20.67;49.96;101895.44;5106067;28;19935;-33
2022/11/10 07:26:36;;;;;;;;;;;;;;;20.67;50.60;101895.44;5093913;28;19924;-33
2022/11/10 07:29:01;;;;;;;;;;;;;;;20.68;50.58;101896.25;5096240;28;19928;-33
2022/11/10 07:31:27;;;;;;;;;;;;;;;20.68;50.54;101904.56;5101861;28;19943;-33
2022/11/10 07:33:53;;;;;;;;;;;;;;;20.69;50.03;101907.09;5098803;28;20318;-33
2022/11/10 07:36:20;;;;;;;;;;;;;;;20.70;49.50;101911.50;5100696;28;19960;-33
2022/11/10 07:38:45;;;;;;;;;;;;;;;20.71;49.50;101910.41;5094975;28;19975;-32
2022/11/10 07:41:11;;;;;;;;;;;;;;;20.71;49.70;101909.56;5103634;28;19924;-33
2022/11/10 07:43:37;;;;;;;;;;;;;;;20.69;49.40;101912.63;5100332;28;20353;-33
2022/11/10 07:46:02;;;;;;;;;;;;;;;20.71;49.57;101909.56;5093981;28;19927;-32
2022/11/10 07:48:28;;;;;;;;;;;;;;;20.71;49.65;101915.13;5087573;28;19943;-33
2022/11/10 07:50:53;;;;;;;;;;;;;;;20.71;49.06;101918.72;5099437;28;19943;-33
2022/11/10 07:53:19;;;;;;;;;;;;;;;20.72;49.41;101923.13;5100526;28;20174;-33
2022/11/10 07:55:45;;;;;;;;;;;;;;;20.72;49.05;101931.44;5074342;28;19953;-35
2022/11/10 07:58:11;;;;;;;;;;;;;;;20.72;49.13;101939.75;5088633;28;19924;-34
2022/11/10 08:00:37;;;;;;;;;;;;;;;20.73;49.41;101944.19;5078465;28;19993;-33
2022/11/10 08:03:07;;;;;;;;;;;;;;;20.72;49.08;101948.06;5096913;28;19927;-33
2022/11/10 08:05:32;;;;;;;;;;;;;;;20.74;49.49;101956.09;5063400;28;20026;-34
2022/11/10 08:07:59;;;;;;;;;;;;;;;20.75;49.06;101957.78;5083038;28;20373;-33
2022/11/10 08:10:25;;;;;;;;;;;;;;;20.75;49.32;101957.78;5071146;28;19963;-33
2022/11/10 08:12:52;;;;;;;;;;;;;;;20.74;48.77;101954.16;5084752;28;20007;-33
2022/11/10 08:15:17;;;;;;;;;;;;;;;20.73;48.85;101966.34;5089682;28;20027;-34
2022/11/10 08:17:43;;;;;;;;;;;;;;;20.72;48.27;101970.19;5090942;28;20078;-33
2022/11/10 08:20:09;;;;;;;;;;;;;;;20.71;48.41;101967.69;5086642;28;20547;-33
2022/11/10 08:22:34;;;;;;;;;;;;;;;20.73;49.75;101971.88;5091360;28;19938;-33
2022/11/10 08:25:00;;;;;;;;;;;;;;;20.73;49.09;101973.81;5091861;28;19928;-33
2022/11/10 08:27:25;;;;;;;;;;;;;;;20.74;50.24;101981.84;5098391;28;19928;-33
2022/11/10 08:29:51;;;;;;;;;;;;;;;20.75;50.30;101988.22;5090546;28;19932;-33
2022/11/10 08:32:17;;;;;;;;;;;;;;;20.74;49.14;101981.84;5095330;28;20327;-33
2022/11/10 08:34:42;;;;;;;;;;;;;;;20.75;49.99;101980.75;5100061;28;20029;-33
2022/11/10 08:37:08;;;;;;;;;;;;;;;20.75;50.26;101994.59;5102415;28;19955;-34
2022/11/10 08:39:33;;;;;;;;;;;;;;;20.75;50.26;101991.81;5097305;28;20065;-33
2022/11/10 08:42:05;;;;;;;;;;;;;;;20.75;50.26;101989.06;5096745;28;19971;-33
2022/11/10 08:44:31;;;;;;;;;;;;;;;20.76;49.94;101995.41;5093810;28;19974;-33
2022/11/10 08:46:57;;;;;;;;;;;;;;;20.76;50.09;102003.72;5099770;28;19932;-34
2022/11/10 08:49:22;;;;;;;;;;;;;;;20.75;50.30;102007.59;5097931;28;20276;-33
2022/11/10 08:51:48;;;;;;;;;;;;;;;20.75;49.33;102002.88;5092923;28;19984;-33
2022/11/10 08:54:13;;;;;;;;;;;;;;;20.75;49.19;102010.38;5098379;28;19935;-33
2022/11/10 08:56:39;;;;;;;;;;;;;;;20.74;48.42;102012.31;5091952;28;19935;-34
2022/11/10 08:59:05;;;;;;;;;;;;;;;20.74;48.57;102017.84;5099011;28;19923;-33
2022/11/10 09:01:30;;;;;;;;;;;;;;;20.76;48.95;102020.34;5071667;28;20008;-33
2022/11/10 09:03:56;;;;;;;;;;;;;;;20.75;50.04;102021.44;5098614;28;19932;-33
2022/11/10 09:06:21;;;;;;;;;;;;;;;20.75;49.76;102026.97;5094060;28;19936;-33
2022/11/10 09:08:47;;;;;;;;;;;;;;;20.74;50.05;102023.38;5084538;28;19932;-33
2022/11/10 09:11:13;;;;;;;;;;;;;;;20.74;49.40;102014.25;5086758;28;19928;-34
2022/11/10 09:13:38;;;;;;;;;;;;;;;20.76;49.38;102012.03;5087249;28;19932;-33
2022/11/10 09:16:04;;;;;;;;;;;;;;;20.76;50.00;102020.34;5081281;28;20606;-33
2022/11/10 09:18:30;;;;;;;;;;;;;;;20.74;49.45;102015.06;5090746;28;19938;-33
2022/11/10 09:20:55;;;;;;;;;;;;;;;20.75;49.22;102029.75;5077207;28;19927;-34
2022/11/10 09:23:23;;;;;;;;;;;;;;;20.74;49.07;102028.91;5080059;28;20034;-35
2022/11/10 09:25:50;;;;;;;;;;;;;;;20.76;49.62;102035.00;5075048;28;19987;-33
2022/11/10 09:28:16;;;;;;;;;;;;;;;20.76;49.60;102034.19;5075987;28;20597;-35
2022/11/10 09:30:44;;;;;;;;;;;;;;;20.75;49.71;102035.28;5079726;28;19927;-33
2022/11/10 09:33:09;;;;;;;;;;;;;;;20.75;49.83;102027.81;5074630;28;19932;-33
2022/11/10 09:35:35;;;;;;;;;;;;;;;20.75;49.88;102029.75;5092152;28;19928;-33
2022/11/10 09:38:01;;;;;;;;;;;;;;;20.75;49.88;102035.28;5084890;28;19938;-33
2022/11/10 09:43:19;;;;;;;;;;;;;;;20.75;49.64;102046.34;5165318;27;19926;-40
2022/11/10 09:45:46;;;;;;;;;;;;;;;20.74;48.75;102053.00;5144606;27;20485;-39
2022/11/10 09:48:16;;;;;;;;;;;;;;;20.75;49.55;102049.13;5144970;27;20389;-40
2022/11/10 09:51:01;;;;;;;;;;;;;;;20.73;48.94;102051.34;5130729;27;20800;-40
2022/11/10 09:53:43;;;;;;;;;;;;;;;20.73;49.44;102063.25;5134950;27;20349;-40
2022/11/10 09:56:11;;;;;;;;;;;;;;;20.73;48.98;102056.88;5134064;27;20021;-40
2022/11/10 09:58:37;;;;;;;;;;;;;;;20.72;49.08;102064.31;5152127;27;20417;-40
2022/11/10 10:01:06;;;;;;;;;;;;;;;20.71;48.99;102079.25;5155877;27;20443;-40
2022/11/10 10:03:32;;;;;;;;;;;;;;;20.73;49.54;102068.78;5146299;27;19923;-39
2022/11/10 10:06:03;;;;;;;;;;;;;;;20.73;49.19;102077.09;5142575;27;19927;-40
2022/11/10 10:11:26;;;;;;;;;;;;;;;20.73;49.81;102076.25;5148860;27;19950;-40
2022/11/10 10:13:58;;;;;;;;;;;;;;;20.73;49.71;102079.84;5107509;27;20509;-40
2022/11/10 10:16:26;;;;;;;;;;;;;;;20.73;49.75;102079.03;5110076;27;20018;-39
2022/11/10 10:18:53;;;;;;;;;;;;;;;20.73;49.89;102081.78;5111012;27;19923;-39
2022/11/10 10:21:22;;;;;;;;;;;;;;;20.72;49.67;102075.38;5104881;27;20147;-40
2022/11/10 10:23:49;;;;;;;;;;;;;;;20.72;49.78;102077.31;5092738;27;20639;-40
2022/11/10 10:26:37;;;;;;;;;;;;;;;20.71;49.84;102083.97;5094821;27;19931;-40
2022/11/10 10:29:06;;;;;;;;;;;;;;;20.72;49.78;102086.47;5120827;27;20545;-39
2022/11/10 10:31:33;;;;;;;;;;;;;;;20.73;50.14;102087.31;5111736;27;20040;-39
2022/11/10 10:33:58;;;;;;;;;;;;;;;20.72;49.76;102078.16;5096175;27;20046;-40
2022/11/10 10:36:25;;;;;;;;;;;;;;;20.72;49.75;102080.94;5127211;27;19984;-40
2022/11/10 10:38:52;;;;;;;;;;;;;;;20.73;49.62;102082.63;5122446;27;20027;-39
2022/11/10 10:41:21;;;;;;;;;;;;;;;20.73;49.67;102079.03;5118864;27;20054;-40
2022/11/10 10:43:50;;;;;;;;;;;;;;;20.73;49.73;102076.25;5100572;27;19938;-41
2022/11/10 10:46:15;;;;;;;;;;;;;;;20.70;49.11;102074.00;5093134;27;19932;-40
2022/11/10 10:48:41;;;;;;;;;;;;;;;20.74;49.56;102070.44;5121992;27;19988;-40
2022/11/10 10:51:07;;;;;;;;;;;;;;;20.74;49.83;102072.38;5108759;27;19924;-40
2022/11/10 10:53:33;;;;;;;;;;;;;;;20.73;49.88;102071.53;5127388;27;19930;-39
2022/11/10 10:56:12;;;;;;;;;;;;;;;20.72;49.91;102067.09;5128779;27;20026;-40
2022/11/10 10:58:54;;;;;;;;;;;;;;;20.72;49.84;102072.63;5120623;27;20005;-40
2022/11/10 11:04:05;;;;;;;;;;;;;;;20.71;49.95;102070.97;5148723;27;19937;-40
2022/11/10 11:06:31;;;;;;;;;;;;;;;20.72;49.96;102069.84;5131746;27;19955;-40
2022/11/10 11:09:16;;;;;;;;;;;;;;;20.71;49.91;102076.50;5148769;27;19931;-40
2022/11/10 11:11:43;;;;;;;;;;;;;;;20.60;49.11;102077.53;5126421;27;20065;-40
2022/11/10 11:16:48;;;;;;;;;;;;;;;20.72;49.69;102096.69;5143789;27;19933;-40
2022/11/10 11:19:14;;;;;;;;;;;;;;;20.71;49.32;102101.41;5106549;27;20018;-40
2022/11/10 11:21:43;;;;;;;;;;;;;;;20.72;49.68;102113.31;5120892;27;20505;-40
2022/11/10 11:24:14;;;;;;;;;;;;;;;20.71;49.95;102112.47;5122715;27;20370;-39
2022/11/10 11:26:43;;;;;;;;;;;;;;;20.71;49.79;102114.41;5125855;27;20371;-39
2022/11/10 11:29:26;;;;;;;;;;;;;;;20.72;49.09;102116.06;5131771;27;19931;-39
2022/11/10 11:32:12;;;;;;;;;;;;;;;20.72;49.56;102122.44;5125257;27;19993;-38
2022/11/10 11:34:48;;;;;;;;;;;;;;;20.73;49.54;102123.31;5109532;27;20058;-39
2022/11/10 11:37:34;;;;;;;;;;;;;;;20.74;49.51;102119.44;5124468;27;19973;-40
2022/11/10 11:43:11;;;;;;;;;;;;;;;20.73;49.82;102129.69;5141179;27;19937;-42
2022/11/10 11:45:54;;;;;;;;;;;;;;;20.74;49.82;102136.88;5114253;27;20525;-39
2022/11/10 11:48:23;;;;;;;;;;;;;;;20.75;49.71;102135.78;5121762;27;19958;-41
2022/11/10 11:50:57;;;;;;;;;;;;;;;20.75;49.48;102127.47;5143136;27;20578;-40
2022/11/10 11:53:37;;;;;;;;;;;;;;;20.75;49.65;102141.31;5145474;27;20014;-41
2022/11/10 11:56:06;;;;;;;;;;;;;;;20.77;49.25;102152.16;5143118;27;19939;-40
2022/11/10 11:58:35;;;;;;;;;;;;;;;20.77;49.56;102144.66;5142576;27;19975;-41
2022/11/10 12:01:13;;;;;;;;;;;;;;;20.77;49.14;102141.91;5135883;27;19979;-40
2022/11/10 12:03:46;;;;;;;;;;;;;;;20.77;49.62;102146.59;5121988;27;20707;-41
2022/11/10 12:06:29;;;;;;;;;;;;;;;20.77;49.18;102143.84;5141843;27;19988;-41
2022/11/10 12:09:16;;;;;;;;;;;;;;;20.78;49.39;102146.34;5140377;27;20732;-40
2022/11/10 12:14:26;;;;;;;;;;;;;;;20.78;48.70;102148.28;5159639;27;19944;-40
2022/11/10 12:16:56;;;;;;;;;;;;;;;20.79;49.21;102144.41;5136711;27;19974;-40
2022/11/10 12:19:27;;;;;;;;;;;;;;;20.78;49.71;102149.09;5155935;27;19934;-40
2022/11/10 12:22:03;;;;;;;;;;;;;;;20.79;49.69;102147.16;5150255;27;20620;-40
2022/11/10 12:24:48;;;;;;;;;;;;;;;20.79;48.99;102149.94;5158699;27;19961;-40
2022/11/10 12:27:17;;;;;;;;;;;;;;;20.79;49.34;102145.22;5146342;27;19929;-39
2022/11/10 12:29:45;;;;;;;;;;;;;;;20.78;49.47;102160.19;5152920;27;20076;-39
2022/11/10 12:32:15;;;;;;;;;;;;;;;20.79;49.71;102159.06;5130268;27;20646;-40
2022/11/10 12:34:42;;;;;;;;;;;;;;;20.80;49.48;102165.44;5143373;27;20009;-40
2022/11/10 12:37:12;;;;;;;;;;;;;;;20.80;49.36;102160.72;5142016;27;19977;-39
2022/11/10 12:39:41;;;;;;;;;;;;;;;20.80;49.10;102162.66;5158472;27;19965;-40
2022/11/10 12:42:10;;;;;;;;;;;;;;;20.78;48.07;102159.34;5161454;27;21081;-39
2022/11/10 12:44:37;;;;;;;;;;;;;;;20.78;48.67;102170.41;5145286;27;19923;-39
2022/11/10 12:47:04;;;;;;;;;;;;;;;20.78;48.65;102162.09;5158832;27;20393;-39
2022/11/10 12:49:31;;;;;;;;;;;;;;;20.80;48.13;102157.97;5151349;27;19966;-39
2022/11/10 12:52:01;;;;;;;;;;;;;;;20.80;48.85;102168.22;5128471;27;20462;-39
2022/11/10 12:54:27;;;;;;;;;;;;;;;20.79;49.04;102172.09;5122955;27;20017;-40
2022/11/10 12:56:53;;;;;;;;;;;;;;;20.79;49.32;102177.63;5104910;27;20841;-40
2022/11/10 13:01:59;;;;;;;;;;;;;;;20.78;48.66;102178.72;5150329;27;20302;-40
2022/11/10 13:04:25;;;;;;;;;;;;;;;20.79;48.41;102177.63;5148384;27;20438;-39
2022/11/10 13:06:51;;;;;;;;;;;;;;;20.77;49.35;102174.28;5143396;27;19979;-38